createdAt,value
2019-02-19T00:01:05.936Z,12.47
2019-02-19T00:03:33.646Z,11.87
2019-02-19T00:06:01.420Z,14.17
2019-02-19T00:08:29.100Z,10.57
2019-02-19T00:10:56.804Z,13.10
2019-02-19T00:13:24.475Z,10.10
2019-02-19T00:15:52.178Z,12.77
2019-02-19T00:18:19.951Z,10.33
2019-02-19T00:20:47.664Z,10.50
2019-02-19T00:23:15.383Z,12.03
2019-02-19T00:25:43.079Z,13.00
2019-02-19T00:28:10.811Z,12.67
2019-02-19T00:30:38.548Z,9.23
2019-02-19T00:33:06.245Z,12.17
2019-02-19T00:35:33.925Z,12.97
2019-02-19T00:38:01.652Z,10.93
2019-02-19T00:40:29.293Z,11.70
2019-02-19T00:42:57.029Z,12.77
2019-02-19T00:45:24.720Z,11.63
2019-02-19T00:47:52.511Z,9.43
2019-02-19T00:50:20.214Z,12.70
2019-02-19T00:52:47.945Z,11.87
2019-02-19T00:55:15.703Z,10.07
2019-02-19T00:57:43.559Z,9.77
2019-02-19T01:00:11.938Z,11.37
2019-02-19T01:02:39.604Z,11.33
2019-02-19T01:05:07.327Z,14.37
2019-02-19T01:07:35.075Z,15.03
2019-02-19T01:10:12.842Z,11.53
2019-02-19T01:12:40.592Z,12.20
2019-02-19T01:15:09.025Z,11.83
2019-02-19T01:17:36.767Z,16.90
2019-02-19T01:20:04.988Z,13.47
2019-02-19T01:22:32.717Z,11.43
2019-02-19T01:25:00.430Z,10.63
2019-02-19T01:27:28.151Z,13.60
2019-02-19T01:29:55.904Z,13.23
2019-02-19T01:32:23.567Z,11.37
2019-02-19T01:34:51.331Z,13.47
2019-02-19T01:37:19.037Z,11.00
2019-02-19T01:39:47.907Z,12.23
2019-02-19T01:42:15.782Z,12.63
2019-02-19T01:44:43.477Z,14.17
2019-02-19T01:47:11.140Z,11.60
2019-02-19T01:49:38.947Z,10.53
2019-02-19T01:52:06.603Z,14.23
2019-02-19T01:54:34.355Z,12.63
2019-02-19T01:57:02.040Z,12.47
2019-02-19T01:59:30.006Z,12.90
2019-02-19T02:01:57.722Z,14.93
2019-02-19T02:04:25.494Z,16.00
2019-02-19T02:06:53.183Z,14.90
2019-02-19T02:09:20.921Z,16.70
2019-02-19T02:11:48.582Z,19.47
2019-02-19T02:14:16.370Z,13.77
2019-02-19T02:16:44.038Z,16.30
2019-02-19T02:19:11.703Z,18.00
2019-02-19T02:21:39.531Z,16.20
2019-02-19T02:24:07.210Z,25.13
2019-02-19T02:26:34.962Z,16.13
2019-02-19T02:29:02.676Z,15.40
2019-02-19T02:31:30.409Z,15.97
2019-02-19T02:33:58.139Z,18.43
2019-02-19T02:36:25.874Z,19.70
2019-02-19T02:38:53.505Z,19.23
2019-02-19T02:41:21.300Z,17.83
2019-02-19T02:43:49.001Z,20.17
2019-02-19T02:46:16.715Z,21.67
2019-02-19T02:48:44.430Z,17.40
2019-02-19T02:51:12.113Z,21.07
2019-02-19T02:53:39.815Z,21.23
2019-02-19T02:56:07.678Z,23.57
2019-02-19T02:58:35.514Z,23.37
2019-02-19T03:01:03.579Z,22.83
2019-02-19T03:03:31.307Z,22.07
2019-02-19T03:06:15.471Z,24.20
2019-02-19T03:08:43.170Z,23.40
2019-02-19T03:11:10.867Z,27.77
2019-02-19T03:13:38.559Z,22.50
2019-02-19T03:16:06.247Z,23.00
2019-02-19T03:18:34.016Z,24.83
2019-02-19T03:21:01.705Z,25.97
2019-02-19T03:23:29.408Z,22.07
2019-02-19T03:25:57.104Z,23.83
2019-02-19T03:28:24.762Z,22.20
2019-02-19T03:30:52.554Z,23.77
2019-02-19T03:33:20.236Z,24.73
2019-02-19T03:35:47.921Z,24.17
2019-02-19T03:38:17.310Z,27.77
2019-02-19T03:40:44.992Z,26.13
2019-02-19T03:43:12.722Z,24.10
2019-02-19T03:45:40.414Z,24.43
2019-02-19T03:48:08.151Z,29.70
2019-02-19T03:50:35.850Z,29.27
2019-02-19T03:53:03.533Z,25.40
2019-02-19T03:55:31.161Z,28.03
2019-02-19T03:57:58.860Z,29.83
2019-02-19T04:00:26.547Z,30.43
2019-02-19T04:02:54.204Z,25.13
2019-02-19T04:05:21.928Z,31.67
2019-02-19T04:07:49.648Z,26.00
2019-02-19T04:10:17.323Z,27.47
2019-02-19T04:12:45.008Z,28.67
2019-02-19T04:15:12.816Z,27.43
2019-02-19T04:17:40.507Z,25.93
2019-02-19T04:20:10.024Z,27.83
2019-02-19T04:22:37.704Z,29.57
2019-02-19T04:25:05.475Z,29.33
2019-02-19T04:27:33.122Z,28.37
2019-02-19T04:30:00.794Z,29.30
2019-02-19T04:32:28.514Z,28.27
2019-02-19T04:34:56.243Z,27.97
2019-02-19T04:37:23.955Z,33.20
2019-02-19T04:39:51.684Z,26.53
2019-02-19T04:42:19.396Z,32.40
2019-02-19T04:44:47.087Z,31.47
2019-02-19T04:47:14.807Z,27.40
2019-02-19T04:49:42.512Z,34.20
2019-02-19T04:52:10.421Z,33.10
2019-02-19T04:54:38.143Z,29.87
2019-02-19T04:57:05.881Z,28.30
2019-02-19T04:59:33.846Z,30.43
2019-02-19T05:02:13.562Z,28.00
2019-02-19T05:04:41.260Z,30.83
2019-02-19T05:07:09.000Z,30.17
2019-02-19T05:09:36.693Z,30.87
2019-02-19T05:12:04.395Z,32.83
2019-02-19T05:14:32.114Z,31.10
2019-02-19T05:16:59.984Z,31.40
2019-02-19T05:19:27.740Z,31.30
2019-02-19T05:21:55.528Z,35.23
2019-02-19T05:24:24.863Z,29.80
2019-02-19T05:26:53.203Z,33.27
2019-02-19T05:29:20.909Z,30.77
2019-02-19T05:31:48.575Z,33.63
2019-02-19T05:34:16.324Z,32.37
2019-02-19T05:36:44.259Z,30.37
2019-02-19T05:39:12.010Z,34.10
2019-02-19T05:41:39.829Z,37.80
2019-02-19T05:44:07.517Z,30.37
2019-02-19T05:46:35.304Z,33.30
2019-02-19T05:49:03.122Z,35.73
2019-02-19T05:51:30.805Z,40.23
2019-02-19T05:53:58.580Z,36.37
2019-02-19T05:56:26.217Z,35.70
2019-02-19T05:58:53.933Z,42.70
2019-02-19T06:01:21.642Z,41.33
2019-02-19T06:03:49.348Z,37.87
2019-02-19T06:06:18.488Z,34.10
2019-02-19T06:08:46.921Z,40.87
2019-02-19T06:11:14.596Z,36.43
2019-02-19T06:13:42.391Z,36.50
2019-02-19T06:16:10.137Z,36.10
2019-02-19T06:18:37.927Z,40.20
2019-02-19T06:21:05.638Z,37.43
2019-02-19T06:23:33.323Z,41.27
2019-02-19T06:26:01.040Z,41.27
2019-02-19T06:28:28.751Z,41.60
2019-02-19T06:30:56.518Z,38.07
2019-02-19T06:33:24.191Z,39.43
2019-02-19T06:35:52.075Z,41.97
2019-02-19T06:38:19.904Z,37.83
2019-02-19T06:40:47.707Z,40.20
2019-02-19T06:43:15.395Z,34.23
2019-02-19T06:45:43.171Z,36.30
2019-02-19T06:48:10.821Z,36.70
2019-02-19T06:50:38.552Z,37.37
2019-02-19T06:53:06.379Z,38.10
2019-02-19T06:55:34.072Z,35.97
2019-02-19T06:58:01.747Z,38.30
2019-02-19T07:00:30.734Z,36.23
2019-02-19T07:03:04.599Z,33.90
2019-02-19T07:05:32.363Z,35.07
2019-02-19T07:08:00.092Z,30.83
2019-02-19T07:10:27.768Z,35.63
2019-02-19T07:12:55.585Z,31.60
2019-02-19T07:15:23.501Z,33.23
2019-02-19T07:17:51.234Z,34.97
2019-02-19T07:20:18.923Z,33.83
2019-02-19T07:22:47.190Z,30.70
2019-02-19T07:25:14.883Z,29.37
2019-02-19T07:27:43.636Z,30.70
2019-02-19T07:30:11.380Z,27.27
2019-02-19T07:32:39.189Z,27.40
2019-02-19T07:35:09.258Z,27.90
2019-02-19T07:37:36.946Z,29.50
2019-02-19T07:40:04.754Z,32.33
2019-02-19T07:42:32.467Z,34.27
2019-02-19T07:45:00.353Z,26.40
2019-02-19T07:47:28.090Z,30.17
2019-02-19T07:49:55.818Z,27.57
2019-02-19T07:52:23.641Z,27.17
2019-02-19T07:54:51.356Z,26.60
2019-02-19T07:57:19.075Z,28.57
2019-02-19T07:59:47.124Z,24.60
2019-02-19T08:02:14.969Z,26.63
2019-02-19T08:04:42.868Z,30.87
2019-02-19T08:07:10.575Z,29.03
2019-02-19T08:09:38.587Z,30.47
2019-02-19T08:12:06.549Z,28.33
2019-02-19T08:14:34.513Z,28.40
2019-02-19T08:17:02.462Z,24.30
2019-02-19T08:19:30.519Z,33.30
2019-02-19T08:21:58.329Z,29.90
2019-02-19T08:24:26.191Z,23.10
2019-02-19T08:26:54.236Z,30.10
2019-02-19T08:29:22.269Z,24.13
2019-02-19T08:31:50.295Z,28.23
2019-02-19T08:34:18.287Z,26.97
2019-02-19T08:36:45.978Z,27.37
2019-02-19T08:39:13.716Z,22.10
2019-02-19T08:41:41.476Z,33.70
2019-02-19T08:44:09.215Z,24.20
2019-02-19T08:46:36.991Z,24.60
2019-02-19T08:49:04.705Z,25.90
2019-02-19T08:51:32.411Z,25.40
2019-02-19T08:54:00.166Z,26.73
2019-02-19T08:56:29.360Z,25.90
2019-02-19T08:58:57.062Z,22.87
2019-02-19T09:01:24.745Z,24.23
2019-02-19T09:03:52.414Z,27.73
2019-02-19T09:06:20.284Z,28.23
2019-02-19T09:08:47.986Z,22.37
2019-02-19T09:11:15.719Z,26.87
2019-02-19T09:13:43.444Z,22.87
2019-02-19T09:16:14.463Z,24.37
2019-02-19T09:18:42.550Z,21.87
2019-02-19T09:21:10.467Z,21.43
2019-02-19T09:23:38.401Z,22.50
2019-02-19T09:26:06.485Z,24.43
2019-02-19T09:28:34.546Z,19.90
2019-02-19T09:31:02.535Z,18.93
2019-02-19T09:33:31.607Z,20.57
2019-02-19T09:35:59.550Z,18.30
2019-02-19T09:38:27.523Z,19.03
2019-02-19T09:40:55.526Z,20.77
2019-02-19T09:43:23.808Z,16.33
2019-02-19T09:45:51.787Z,16.43
2019-02-19T09:48:19.988Z,16.53
2019-02-19T09:50:48.144Z,18.33
2019-02-19T09:53:15.885Z,16.47
2019-02-19T09:55:43.913Z,15.40
2019-02-19T09:58:11.703Z,14.80
2019-02-19T10:00:39.690Z,14.60
2019-02-19T10:03:07.472Z,16.80
2019-02-19T10:05:35.231Z,16.50
2019-02-19T10:08:02.976Z,18.97
2019-02-19T10:10:30.669Z,15.33
2019-02-19T10:12:58.397Z,14.90
2019-02-19T10:15:26.260Z,15.73
2019-02-19T10:17:54.037Z,15.90
2019-02-19T10:20:31.235Z,17.40
2019-02-19T10:22:59.417Z,15.07
2019-02-19T10:25:27.237Z,15.57
2019-02-19T10:27:55.004Z,16.00
2019-02-19T10:30:22.753Z,13.30
2019-02-19T10:32:50.517Z,10.57
2019-02-19T10:35:18.245Z,16.77
2019-02-19T10:37:47.069Z,17.27
2019-02-19T10:40:15.158Z,14.10
2019-02-19T10:42:42.875Z,12.20
2019-02-19T10:45:15.001Z,11.43
2019-02-19T10:47:42.876Z,12.03
2019-02-19T10:50:12.373Z,11.70
2019-02-19T10:52:40.111Z,13.47
2019-02-19T10:55:07.889Z,13.10
2019-02-19T10:57:35.680Z,16.00
2019-02-19T11:00:03.938Z,14.70
2019-02-19T11:02:36.868Z,12.10
2019-02-19T11:05:04.830Z,10.80
2019-02-19T11:07:32.695Z,15.60
2019-02-19T11:10:00.420Z,13.83
2019-02-19T11:12:28.541Z,13.73
2019-02-19T11:14:56.291Z,15.50
2019-02-19T11:17:24.010Z,12.57
2019-02-19T11:19:51.752Z,12.07
2019-02-19T11:22:19.521Z,13.07
2019-02-19T11:24:47.480Z,13.13
2019-02-19T11:27:16.693Z,12.70
2019-02-19T11:29:44.754Z,11.87
2019-02-19T11:32:12.714Z,12.70
2019-02-19T11:34:41.571Z,11.80
2019-02-19T11:37:09.341Z,11.13
2019-02-19T11:39:37.085Z,11.20
2019-02-19T11:42:04.964Z,11.27
2019-02-19T11:44:39.537Z,14.97
2019-02-19T11:47:07.529Z,11.00
2019-02-19T11:49:35.428Z,11.70
2019-02-19T11:52:03.172Z,12.20
2019-02-19T11:54:30.943Z,13.40
2019-02-19T11:56:58.708Z,10.40
2019-02-19T11:59:26.474Z,11.13
2019-02-19T12:01:54.352Z,14.47
2019-02-19T12:04:22.058Z,12.37
2019-02-19T12:06:49.885Z,10.00
2019-02-19T12:09:18.920Z,12.00
2019-02-19T12:11:46.710Z,10.83
2019-02-19T12:14:14.649Z,12.57
2019-02-19T12:16:44.718Z,10.33
2019-02-19T12:19:13.984Z,8.37
2019-02-19T12:21:41.795Z,11.63
2019-02-19T12:24:15.145Z,12.53
2019-02-19T12:26:44.526Z,13.43
2019-02-19T12:29:12.267Z,11.17
2019-02-19T12:31:39.967Z,8.60
2019-02-19T12:34:07.710Z,10.43
2019-02-19T12:36:35.396Z,9.00
2019-02-19T12:39:04.903Z,9.40
2019-02-19T12:41:32.590Z,10.40
2019-02-19T12:44:00.399Z,10.43
2019-02-19T12:46:28.064Z,9.83
2019-02-19T12:48:55.738Z,12.27
2019-02-19T12:51:26.437Z,8.47
2019-02-19T12:53:53.195Z,12.73
2019-02-19T12:56:20.995Z,10.23
2019-02-19T12:58:48.722Z,9.87
2019-02-19T13:01:16.750Z,10.47
2019-02-19T13:03:44.456Z,10.77
2019-02-19T13:06:12.149Z,8.87
2019-02-19T13:08:39.865Z,10.67
2019-02-19T13:11:07.727Z,9.23
2019-02-19T13:13:35.446Z,11.67
2019-02-19T13:16:03.215Z,9.03
2019-02-19T13:18:30.899Z,8.53
2019-02-19T13:20:58.662Z,12.50
2019-02-19T13:23:26.384Z,9.57
2019-02-19T13:25:54.053Z,8.53
2019-02-19T13:28:21.768Z,10.63
2019-02-19T13:30:49.445Z,9.23
2019-02-19T13:33:17.178Z,8.80
2019-02-19T13:35:44.835Z,8.80
2019-02-19T13:38:12.518Z,8.80
2019-02-19T13:40:42.775Z,8.00
2019-02-19T13:43:10.513Z,9.97
2019-02-19T13:45:38.495Z,6.50
2019-02-19T13:48:06.335Z,8.07
2019-02-19T13:50:35.251Z,8.00
2019-02-19T13:53:10.629Z,12.03
2019-02-19T13:55:41.619Z,9.97
2019-02-19T13:58:09.308Z,9.00
2019-02-19T14:00:39.376Z,8.10
2019-02-19T14:03:07.095Z,9.50
2019-02-19T14:05:34.758Z,8.97
2019-02-19T14:08:02.452Z,7.03
2019-02-19T14:10:30.108Z,8.53
2019-02-19T14:12:57.776Z,11.20
2019-02-19T14:15:32.943Z,8.60
2019-02-19T14:18:01.347Z,9.53
2019-02-19T14:21:00.864Z,9.80
2019-02-19T14:24:00.011Z,10.33
2019-02-19T14:26:46.268Z,8.03
2019-02-19T14:29:39.202Z,7.03
2019-02-19T14:32:21.476Z,11.30
2019-02-19T14:35:07.752Z,7.67
2019-02-19T14:38:13.088Z,8.63
2019-02-19T14:40:58.977Z,9.53
2019-02-19T14:43:46.946Z,10.07
2019-02-19T14:46:34.619Z,8.67
2019-02-19T14:49:14.934Z,10.37
2019-02-19T14:52:08.417Z,9.33
2019-02-19T14:54:54.570Z,7.10
2019-02-19T14:57:53.890Z,7.77
2019-02-19T15:00:47.033Z,8.70
2019-02-19T15:03:37.313Z,6.83
2019-02-19T15:06:23.320Z,9.27
2019-02-19T15:09:09.067Z,10.30
2019-02-19T15:12:02.061Z,9.50
2019-02-19T15:14:43.248Z,9.60
2019-02-19T15:17:28.696Z,8.30
2019-02-19T15:20:14.499Z,7.83
2019-02-19T15:23:07.685Z,9.80
2019-02-19T15:25:58.041Z,10.50
2019-02-19T15:28:43.823Z,9.37
2019-02-19T15:31:31.721Z,10.17
2019-02-19T15:34:18.997Z,9.43
2019-02-19T15:37:13.106Z,11.30
2019-02-19T15:40:12.486Z,11.90
2019-02-19T15:42:58.294Z,14.20
2019-02-19T15:46:09.411Z,10.60
2019-02-19T15:48:59.647Z,8.13
2019-02-19T15:51:43.017Z,11.97
2019-02-19T15:54:36.334Z,9.50
2019-02-19T15:57:12.545Z,8.60
2019-02-19T16:00:10.029Z,13.67
2019-02-19T16:02:48.346Z,13.37
2019-02-19T16:05:24.782Z,12.47
2019-02-19T16:08:21.093Z,16.07
2019-02-19T16:11:10.963Z,8.30
2019-02-19T16:14:16.417Z,12.87
2019-02-19T16:17:11.159Z,9.17
2019-02-19T16:20:04.304Z,9.77
2019-02-19T16:22:50.762Z,10.40
2019-02-19T16:25:36.591Z,9.47
2019-02-19T16:28:35.889Z,12.97
2019-02-19T16:31:25.825Z,10.67
2019-02-19T16:34:13.080Z,12.97
2019-02-19T16:37:00.479Z,10.47
2019-02-19T16:39:35.973Z,11.77
2019-02-19T16:42:37.465Z,14.93
2019-02-19T16:45:24.527Z,12.93
2019-02-19T16:48:01.447Z,12.57
2019-02-19T16:50:57.704Z,9.37
2019-02-19T16:53:34.931Z,17.07
2019-02-19T16:56:31.227Z,10.83
2019-02-19T16:59:18.542Z,10.90
2019-02-19T17:02:14.860Z,11.60
2019-02-19T17:05:02.148Z,12.10
2019-02-19T17:07:49.341Z,14.67
2019-02-19T17:10:45.660Z,8.57
2019-02-19T17:13:25.431Z,11.60
2019-02-19T17:16:21.769Z,10.13
2019-02-19T17:19:15.125Z,11.97
2019-02-19T17:22:02.546Z,15.73
2019-02-19T17:24:40.646Z,16.70
2019-02-19T17:27:26.122Z,14.23
2019-02-19T17:30:13.120Z,13.60
2019-02-19T17:32:59.489Z,10.77
2019-02-19T17:35:55.747Z,13.57
2019-02-19T17:38:45.873Z,13.30
2019-02-19T17:41:22.168Z,12.20
2019-02-19T17:43:57.034Z,14.27
2019-02-19T17:46:51.050Z,15.80
2019-02-19T17:49:36.893Z,13.90
2019-02-19T17:52:26.763Z,16.10
2019-02-19T17:55:13.125Z,14.93
2019-02-19T17:58:03.330Z,15.17
2019-02-19T18:00:37.522Z,13.43
2019-02-19T18:03:31.298Z,13.07
2019-02-19T18:06:27.297Z,13.43
2019-02-19T18:09:17.558Z,11.07
2019-02-19T18:12:07.924Z,13.93
2019-02-19T18:14:58.130Z,12.00
2019-02-19T18:17:30.657Z,10.43
2019-02-19T18:19:58.325Z,12.30
2019-02-19T18:22:26.445Z,15.57
2019-02-19T18:24:54.224Z,17.20
2019-02-19T18:27:32.502Z,15.00
2019-02-19T18:30:00.534Z,16.03
2019-02-19T18:32:29.713Z,11.57
2019-02-19T18:34:58.446Z,16.83
2019-02-19T18:37:26.646Z,10.37
2019-02-19T18:39:55.504Z,12.17
2019-02-19T18:42:23.623Z,15.73
2019-02-19T18:44:51.916Z,14.77
2019-02-19T18:47:19.588Z,13.90
2019-02-19T18:49:48.969Z,14.23
2019-02-19T18:52:16.984Z,15.67
2019-02-19T18:54:44.946Z,13.07
2019-02-19T18:57:14.119Z,16.03
2019-02-19T18:59:41.799Z,15.73
2019-02-19T19:02:09.507Z,15.67
2019-02-19T19:04:37.216Z,15.10
2019-02-19T19:07:04.861Z,17.83
2019-02-19T19:09:32.567Z,16.63
2019-02-19T19:12:00.249Z,14.17
2019-02-19T19:14:27.964Z,12.47
2019-02-19T19:16:55.668Z,12.57
2019-02-19T19:19:23.372Z,13.90
2019-02-19T19:21:51.041Z,13.43
2019-02-19T19:24:18.666Z,11.30
2019-02-19T19:26:46.387Z,14.87
2019-02-19T19:29:14.087Z,13.03
2019-02-19T19:31:43.483Z,12.03
2019-02-19T19:34:11.162Z,15.70
2019-02-19T19:36:38.809Z,11.20
2019-02-19T19:39:06.952Z,13.93
2019-02-19T19:41:34.657Z,10.93
2019-02-19T19:44:02.370Z,15.30
2019-02-19T19:46:30.075Z,15.57
2019-02-19T19:48:57.752Z,15.50
2019-02-19T19:51:25.477Z,15.20
2019-02-19T19:53:53.196Z,13.77
2019-02-19T19:56:20.903Z,13.03
2019-02-19T19:58:48.602Z,14.47
2019-02-19T20:01:16.358Z,13.73
2019-02-19T20:03:44.995Z,13.13
2019-02-19T20:06:12.700Z,13.93
2019-02-19T20:08:40.345Z,12.23
2019-02-19T20:11:08.063Z,19.50
2019-02-19T20:13:35.709Z,14.53
2019-02-19T20:16:03.374Z,16.43
2019-02-19T20:18:38.929Z,15.43
2019-02-19T20:21:00.583Z,13.70
2019-02-19T20:23:28.305Z,13.97
2019-02-19T20:25:56.031Z,10.40
2019-02-19T20:28:23.711Z,12.10
2019-02-19T20:30:51.458Z,14.00
2019-02-19T20:33:19.158Z,20.67
2019-02-19T20:35:48.503Z,13.43
2019-02-19T20:38:16.252Z,15.53
2019-02-19T20:40:44.018Z,15.53
2019-02-19T20:43:11.662Z,14.67
2019-02-19T20:45:39.310Z,17.90
2019-02-19T20:48:07.046Z,17.03
2019-02-19T20:50:34.742Z,15.07
2019-02-19T20:53:02.378Z,15.90
2019-02-19T20:55:36.694Z,15.53
2019-02-19T20:57:59.639Z,18.90
2019-02-19T21:00:27.379Z,20.97
2019-02-19T21:02:55.021Z,18.33
2019-02-19T21:05:22.765Z,22.13
2019-02-19T21:07:50.498Z,18.87
2019-02-19T21:10:18.236Z,16.93
2019-02-19T21:12:45.907Z,13.73
2019-02-19T21:15:13.912Z,15.73
2019-02-19T21:17:41.686Z,17.83
2019-02-19T21:20:09.488Z,13.53
2019-02-19T21:22:37.213Z,16.77
2019-02-19T21:25:05.057Z,14.60
2019-02-19T21:27:33.638Z,13.90
2019-02-19T21:30:01.350Z,15.40
2019-02-19T21:32:29.079Z,15.67
2019-02-19T21:34:56.701Z,12.70
2019-02-19T21:37:24.386Z,11.50
2019-02-19T21:39:52.599Z,20.20
2019-02-19T21:42:21.893Z,12.33
2019-02-19T21:44:49.679Z,11.03
2019-02-19T21:47:17.398Z,12.73
2019-02-19T21:49:45.929Z,12.77
2019-02-19T21:52:13.571Z,13.30
2019-02-19T21:54:41.235Z,14.73
2019-02-19T21:57:08.927Z,13.57
2019-02-19T21:59:36.691Z,15.17
2019-02-19T22:02:04.423Z,14.07
2019-02-19T22:04:32.296Z,19.17
2019-02-19T22:06:59.963Z,19.10
2019-02-19T22:09:27.636Z,12.43
2019-02-19T22:11:55.353Z,16.40
2019-02-19T22:14:23.051Z,16.17
2019-02-19T22:16:50.739Z,15.77
2019-02-19T22:19:18.418Z,17.90
2019-02-19T22:22:08.066Z,13.77
2019-02-19T22:24:36.980Z,17.90
2019-02-19T22:27:05.983Z,15.87
2019-02-19T22:29:33.650Z,15.13
2019-02-19T22:32:01.622Z,16.20
2019-02-19T22:34:29.296Z,12.43
2019-02-19T22:36:56.966Z,18.13
2019-02-19T22:39:24.791Z,12.67
2019-02-19T22:41:52.559Z,14.20
2019-02-19T22:44:20.241Z,15.77
2019-02-19T22:46:47.919Z,15.80
2019-02-19T22:49:15.599Z,13.33
2019-02-19T22:51:43.279Z,13.77
2019-02-19T22:54:19.836Z,16.50
2019-02-19T22:56:47.561Z,12.20
2019-02-19T22:59:15.260Z,15.07
2019-02-19T23:01:55.270Z,13.03
2019-02-19T23:04:22.895Z,15.00
2019-02-19T23:06:50.554Z,12.23
2019-02-19T23:09:18.251Z,14.23
2019-02-19T23:11:45.940Z,19.97
2019-02-19T23:14:13.578Z,14.50
2019-02-19T23:16:41.266Z,17.73
2019-02-19T23:19:08.890Z,14.43
2019-02-19T23:21:36.627Z,14.00
2019-02-19T23:24:04.318Z,17.03
2019-02-19T23:26:32.002Z,13.43
2019-02-19T23:28:59.663Z,13.60
2019-02-19T23:31:27.377Z,12.93
2019-02-19T23:33:55.031Z,16.30
2019-02-19T23:36:30.669Z,17.67
2019-02-19T23:38:58.489Z,18.73
2019-02-19T23:41:26.139Z,13.50
2019-02-19T23:43:53.855Z,20.60
2019-02-19T23:46:21.543Z,14.67
2019-02-19T23:48:49.239Z,14.00
2019-02-19T23:51:16.853Z,13.13
2019-02-19T23:53:44.524Z,15.13
2019-02-19T23:56:12.145Z,15.93
2019-02-19T23:58:39.947Z,17.93
